Check out our new PWSWeather beta!
PWSweather.com
Personal Weather Stations
Station Observations
OBERT
Bodensee Hinterland, OberteuringenDE

Bodensee HinterlandOberteuringenDE

Lat: 47.714675, Lon: 9.44447

Elevation: 1427

Station Type: Wunder Weather Station

Latest ConditionsUpdated 7:37:05 PM GMT+01:01 Monday, Feb 24, 2020
Currently Today's Max Today's Min Today's Average
Temperature 52.1°F11.2°C 64.0°F17.8°C 48.5°F9.2°C 55.6°F13.1°C
Dew Point 49.2°F9.6°C 54.0°F12.2°C 47.5°F8.6°C 50.8°F10.4°C
Winds 0.5 mph N0.8 kmh N 16.0 mph -25.7 kmh - - 5.7 mph 9.2 kmh
Wind Gusts 6.2 mph10.0 kmh 28.1 mph45.2 kmh - -
Humidity 89% 100% 67% 84%
Pressure 29.96 in1014.6 mb 30.23 in1023.7 mb 29.95 in1014.2 mb -
Hour Temp Dew Point Humidity Winds Wind Gusts Pressure Precip Precip Rate Daily Precip Total
07:37 PM 52.1°F11.2°C 49.2°F9.6°C 89% 0.5 mph N0.8 kmh N 6.2 mph10.0 kmh 29.96 in1014.6 mb 0.00 in0.0 mm 0.00 in0.0 mm 0.00 in0.0 mm
07:07 PM 48.5°F9.2°C 47.5°F8.6°C 96% Calm Calm -- 29.96 in1014.6 mb 0.00 in0.0 mm 0.00 in0.0 mm 0.00 in0.0 mm
06:37 PM 52.5°F11.4°C 48.8°F9.3°C 87% Calm Calm 1.2 mph1.9 kmh 29.95 in1014.2 mb 0.00 in0.0 mm 0.00 in0.0 mm 0.00 in0.0 mm
06:07 PM 55.7°F13.2°C 50.3°F10.2°C 82% 4.8 mph 7.7 kmh 8.1 mph13.0 kmh 29.96 in1014.6 mb 0.00 in0.0 mm 0.00 in0.0 mm 0.00 in0.0 mm
05:37 PM 61.8°F16.6°C 52.4°F11.3°C 71% 5.5 mph 8.9 kmh 9.3 mph15.0 kmh 29.97 in1014.9 mb 0.00 in0.0 mm 0.00 in0.0 mm 0.00 in0.0 mm
05:07 PM 64.0°F17.8°C 53.0°F11.7°C 67% 9.7 mph N15.6 kmh N 11.8 mph19.0 kmh 29.97 in1014.9 mb 0.00 in0.0 mm 0.00 in0.0 mm 0.00 in0.0 mm
04:37 PM 61.8°F16.6°C 52.3°F11.3°C 70% 8.0 mph N12.9 kmh N 15.6 mph25.1 kmh 29.98 in1015.2 mb 0.00 in0.0 mm 0.00 in0.0 mm 0.00 in0.0 mm
04:07 PM 62.6°F17.0°C 53.0°F11.7°C 70% 7.0 mph 11.3 kmh 10.3 mph16.6 kmh 30.00 in1015.9 mb 0.00 in0.0 mm 0.00 in0.0 mm 0.00 in0.0 mm
03:37 PM 61.8°F16.6°C 52.5°F11.4°C 71% 7.2 mph 11.6 kmh 13.1 mph21.1 kmh 30.01 in1016.3 mb 0.00 in0.0 mm 0.00 in0.0 mm 0.00 in0.0 mm
03:07 PM 61.3°F16.3°C 52.8°F11.6°C 73% 3.9 mph 6.3 kmh 6.5 mph10.5 kmh 30.03 in1016.9 mb 0.00 in0.0 mm 0.00 in0.0 mm 0.00 in0.0 mm
02:37 PM 61.5°F16.4°C 52.8°F11.6°C 73% 3.6 mph N5.8 kmh N 8.1 mph13.0 kmh 30.04 in1017.3 mb 0.00 in0.0 mm 0.00 in0.0 mm 0.00 in0.0 mm
02:07 PM 60.8°F16.0°C 53.3°F11.8°C 76% 3.0 mph N4.8 kmh N 6.2 mph10.0 kmh 30.06 in1017.9 mb 0.00 in0.0 mm 0.00 in0.0 mm 0.00 in0.0 mm
01:37 PM 59.5°F15.3°C 53.0°F11.7°C 79% 8.5 mph 13.7 kmh 11.8 mph19.0 kmh 30.09 in1019.0 mb 0.00 in0.0 mm 0.00 in0.0 mm 0.00 in0.0 mm
01:07 PM 62.2°F16.8°C 53.9°F12.2°C 74% 3.3 mph 5.3 kmh 7.5 mph12.1 kmh 30.11 in1019.6 mb 0.00 in0.0 mm 0.00 in0.0 mm 0.00 in0.0 mm
12:54 PM 62.6°F17.0°C 54.0°F12.2°C 73% 3.6 mph 5.8 kmh 7.8 mph12.6 kmh 30.12 in1020.0 mb 0.00 in0.0 mm 0.00 in0.0 mm 0.00 in0.0 mm
12:24 PM 59.1°F15.1°C 53.7°F12.1°C 82% 4.0 mph N6.4 kmh N 9.3 mph15.0 kmh 30.14 in1020.7 mb 0.00 in0.0 mm 0.00 in0.0 mm 0.00 in0.0 mm
11:54 AM 57.5°F14.2°C 53.6°F12.0°C 86% 1.3 mph 2.1 kmh 4.3 mph6.9 kmh 30.16 in1021.3 mb 0.00 in0.0 mm 0.00 in0.0 mm 0.00 in0.0 mm
11:24 AM 53.0°F11.7°C 53.0°F11.7°C 100% Calm Calm 2.5 mph4.0 kmh 30.18 in1022.0 mb 0.00 in0.0 mm 0.00 in0.0 mm 0.00 in0.0 mm
10:54 AM 50.5°F10.3°C 50.5°F10.3°C 100% Calm Calm 5.0 mph8.0 kmh 30.19 in1022.4 mb 0.00 in0.0 mm 0.00 in0.0 mm 0.00 in0.0 mm
10:24 AM 52.3°F11.3°C 52.0°F11.1°C 98% Calm Calm -- 30.20 in1022.7 mb 0.00 in0.0 mm 0.00 in0.0 mm 0.00 in0.0 mm
09:54 AM 51.0°F10.6°C 51.0°F10.6°C 100% Calm Calm -- 30.21 in1023.0 mb 0.00 in0.0 mm 0.00 in0.0 mm 0.00 in0.0 mm
09:24 AM 51.4°F10.8°C 51.0°F10.6°C 98% Calm Calm -- 30.21 in1023.0 mb 0.00 in0.0 mm 0.00 in0.0 mm 0.00 in0.0 mm
08:54 AM 51.9°F11.1°C 50.6°F10.3°C 95% Calm Calm -- 30.22 in1023.4 mb 0.00 in0.0 mm 0.00 in0.0 mm 0.00 in0.0 mm
08:24 AM 51.2°F10.7°C 50.2°F10.1°C 96% 2.6 mph N4.2 kmh N 4.6 mph7.4 kmh 30.22 in1023.4 mb 0.00 in0.0 mm 0.00 in0.0 mm 0.00 in0.0 mm
07:54 AM 51.0°F10.6°C 50.2°F10.1°C 97% Calm Calm -- 30.22 in1023.4 mb 0.00 in0.0 mm 0.00 in0.0 mm 0.00 in0.0 mm
07:24 AM 50.9°F10.5°C 50.0°F10.0°C 96% Calm Calm -- 30.22 in1023.4 mb 0.00 in0.0 mm 0.00 in0.0 mm 0.00 in0.0 mm
06:54 AM 51.2°F10.7°C 50.1°F10.1°C 95% 3.4 mph N5.5 kmh N 6.5 mph10.5 kmh 30.22 in1023.4 mb 0.00 in0.0 mm 0.00 in0.0 mm 0.00 in0.0 mm
06:24 AM 51.6°F10.9°C 50.1°F10.1°C 94% 6.0 mph 9.7 kmh 11.8 mph19.0 kmh 30.23 in1023.7 mb 0.00 in0.0 mm 0.00 in0.0 mm 0.00 in0.0 mm
05:54 AM 51.6°F10.9°C 49.9°F9.9°C 94% 6.8 mph 10.9 kmh 13.4 mph21.6 kmh 30.23 in1023.7 mb 0.00 in0.0 mm 0.00 in0.0 mm 0.00 in0.0 mm
05:24 AM 51.9°F11.1°C 50.1°F10.1°C 93% 10.5 mph N16.9 kmh N 19.3 mph31.1 kmh 30.22 in1023.4 mb 0.00 in0.0 mm 0.00 in0.0 mm 0.00 in0.0 mm
04:54 AM 52.5°F11.4°C 50.1°F10.1°C 91% 10.4 mph N16.7 kmh N 20.6 mph33.2 kmh 30.22 in1023.4 mb 0.00 in0.0 mm 0.00 in0.0 mm 0.00 in0.0 mm
04:24 AM 53.0°F11.7°C 49.8°F9.9°C 88% 10.7 mph N17.2 kmh N 20.3 mph32.7 kmh 30.22 in1023.4 mb 0.00 in0.0 mm 0.00 in0.0 mm 0.00 in0.0 mm
03:54 AM 53.6°F12.0°C 49.6°F9.8°C 86% 10.8 mph 17.4 kmh 23.4 mph37.7 kmh 30.22 in1023.4 mb 0.00 in0.0 mm 0.00 in0.0 mm 0.00 in0.0 mm
03:24 AM 54.1°F12.3°C 49.2°F9.6°C 83% 13.4 mph 21.6 kmh 22.1 mph35.6 kmh 30.21 in1023.0 mb 0.00 in0.0 mm 0.00 in0.0 mm 0.00 in0.0 mm
02:54 AM 54.1°F12.3°C 48.9°F9.4°C 82% 11.3 mph N18.2 kmh N 20.9 mph33.6 kmh 30.20 in1022.7 mb 0.00 in0.0 mm 0.00 in0.0 mm 0.00 in0.0 mm
02:24 AM 55.2°F12.9°C 48.7°F9.3°C 78% 13.9 mph N22.4 kmh N 25.6 mph41.2 kmh 30.22 in1023.4 mb 0.00 in0.0 mm 0.00 in0.0 mm 0.00 in0.0 mm
01:54 AM 55.7°F13.2°C 48.2°F9.0°C 75% 13.3 mph 21.4 kmh 16.5 mph26.6 kmh 30.20 in1022.7 mb 0.00 in0.0 mm 0.00 in0.0 mm 0.00 in0.0 mm
01:24 AM 55.9°F13.3°C 47.6°F8.7°C 73% 10.1 mph 16.3 kmh 18.7 mph30.1 kmh 30.21 in1023.0 mb 0.00 in0.0 mm 0.00 in0.0 mm 0.00 in0.0 mm
12:54 AM 56.4°F13.6°C 47.5°F8.6°C 71% 14.6 mph 23.5 kmh 27.5 mph44.3 kmh 30.20 in1022.7 mb 0.00 in0.0 mm 0.00 in0.0 mm 0.00 in0.0 mm
12:24 AM 56.8°F13.8°C 47.6°F8.7°C 71% 16.0 mph N25.7 kmh N 28.1 mph45.2 kmh 30.20 in1022.7 mb 0.00 in0.0 mm 0.00 in0.0 mm 0.00 in0.0 mm